Time;durP1;ratioP1;P1;durP2;ratioP2;P2;SDS_P1;SDS_P2;PMS_P1;PMS_P2;Temp;Humidity;BMP_temperature;BMP_pressure;BME280_temperature;BME280_humidity;BME280_pressure;Samples;Min_cycle;Max_cycle;Signal;HPM_P1;HPM_P2
2024/03/11 00:03:43;;;;;;;39.30;18.20;;;;;;;10.04;72.45;98480.19;10342424;28;20392;-59
2024/03/11 00:08:45;;;;;;;37.15;17.10;;;;;;;10.13;72.32;98485.06;10339555;28;20041;-59
2024/03/11 00:13:48;;;;;;;37.97;17.35;;;;;;;10.07;72.99;98490.47;10340910;28;20529;-62
2024/03/11 00:18:49;;;;;;;43.78;17.38;;;;;;;10.05;73.54;98492.53;10340126;28;20039;-63
2024/03/11 00:23:51;;;;;;;32.45;16.58;;;;;;;10.09;73.52;98483.84;10340930;28;20058;-63
2024/03/11 00:28:52;;;;;;;33.47;15.10;;;;;;;10.08;73.66;98482.19;10342831;28;20050;-63
2024/03/11 00:33:54;;;;;;;30.15;15.02;;;;;;;10.16;73.76;98485.66;10343958;28;20122;-63
2024/03/11 00:38:55;;;;;;;31.08;15.07;;;;;;;10.19;74.15;98477.16;10342037;28;20145;-64
2024/03/11 00:43:57;;;;;;;30.67;14.90;;;;;;;10.11;74.48;98478.25;10339907;28;20054;-63
2024/03/11 00:48:58;;;;;;;28.73;14.55;;;;;;;10.09;74.94;98512.53;10341042;28;20046;-62
2024/03/11 00:54:01;;;;;;;16.20;9.05;;;;;;;10.04;74.86;98528.50;10339467;28;20153;-62
2024/03/11 00:59:04;;;;;;;22.23;9.05;;;;;;;9.91;75.32;98507.94;10338562;28;20045;-62
2024/03/11 01:04:10;;;;;;;14.82;7.93;;;;;;;9.80;75.62;98530.09;10339824;28;20058;-62
2024/03/11 01:09:11;;;;;;;12.13;5.45;;;;;;;9.70;76.03;98544.00;10343540;28;20441;-62
2024/03/11 01:14:14;;;;;;;7.05;4.25;;;;;;;9.64;76.06;98531.44;10340922;28;20050;-63
2024/03/11 01:19:18;;;;;;;7.60;4.13;;;;;;;9.53;76.33;98535.59;10346299;28;20433;-63
2024/03/11 01:24:24;;;;;;;7.20;3.10;;;;;;;9.45;76.26;98547.41;10349202;23;20085;-81
2024/03/11 01:29:26;;;;;;;4.72;2.50;;;;;;;9.41;76.31;98540.00;10328724;28;20058;-81
2024/03/11 01:34:29;;;;;;;5.20;2.55;;;;;;;9.38;76.56;98541.25;10309579;28;20085;-81
2024/03/11 01:39:42;;;;;;;5.13;2.10;;;;;;;9.33;76.64;98541.88;10324099;28;20046;-82
2024/03/11 01:44:47;;;;;;;3.35;1.88;;;;;;;9.26;76.84;98554.50;10329599;28;20070;-82
2024/03/11 01:49:52;;;;;;;2.97;1.70;;;;;;;9.21;77.06;98557.00;10329473;28;20046;-82
2024/03/11 01:54:55;;;;;;;4.88;1.45;;;;;;;9.23;76.48;98554.09;10328747;28;20128;-82
2024/03/11 01:59:57;;;;;;;4.53;1.88;;;;;;;9.18;76.76;98551.22;10311311;28;20101;-82
2024/03/11 02:05:01;;;;;;;4.05;1.60;;;;;;;9.19;76.64;98550.19;10312942;28;20066;-82
2024/03/11 02:10:07;;;;;;;2.80;1.60;;;;;;;9.11;76.94;98552.06;10332710;28;20062;-82
2024/03/11 02:15:11;;;;;;;4.13;1.67;;;;;;;9.20;76.72;98547.31;10301929;28;20081;-82
2024/03/11 02:20:16;;;;;;;3.53;1.90;;;;;;;9.26;76.21;98534.91;10308604;28;20047;-82
2024/03/11 02:25:26;;;;;;;5.18;1.92;;;;;;;9.20;76.49;98541.13;10356261;28;20109;-82
2024/03/11 02:30:30;;;;;;;5.28;2.10;;;;;;;9.20;76.54;98546.47;10360633;28;20059;-83
2024/03/11 02:35:32;;;;;;;4.10;2.20;;;;;;;9.21;76.87;98542.78;10331130;28;20154;-83
2024/03/11 02:40:38;;;;;;;3.72;2.08;;;;;;;9.19;76.42;98536.81;10333251;28;20057;-82
2024/03/11 02:45:42;;;;;;;2.45;1.48;;;;;;;9.17;76.82;98545.03;10367761;28;20054;-82
2024/03/11 02:50:44;;;;;;;4.10;1.70;;;;;;;9.17;76.67;98542.38;10353179;28;20545;-82
2024/03/11 02:55:45;;;;;;;3.45;1.77;;;;;;;9.21;76.27;98554.31;10367925;28;20073;-84
2024/03/11 03:00:47;;;;;;;6.05;2.20;;;;;;;9.16;76.69;98564.00;10357798;28;20060;-85
2024/03/11 03:05:49;;;;;;;3.13;1.98;;;;;;;9.13;76.98;98566.09;10358817;28;20050;-84
2024/03/11 03:10:51;;;;;;;3.80;1.73;;;;;;;9.20;76.78;98579.50;10339326;28;20136;-85
2024/03/11 03:15:54;;;;;;;3.03;1.05;;;;;;;9.21;76.73;98582.97;10353690;28;20057;-85
2024/03/11 03:20:55;;;;;;;2.65;1.23;;;;;;;9.19;76.38;98580.50;10340056;28;20042;-85
2024/03/11 03:25:57;;;;;;;2.47;1.27;;;;;;;9.16;76.51;98585.47;10335333;28;20534;-84
2024/03/11 03:30:59;;;;;;;2.03;0.90;;;;;;;9.11;77.29;98583.41;10338242;28;20054;-85
2024/03/11 03:36:02;;;;;;;2.20;0.88;;;;;;;9.06;76.96;98589.41;10355751;28;20136;-85
2024/03/11 03:41:04;;;;;;;3.42;1.02;;;;;;;8.97;77.23;98601.38;10338030;28;20050;-85
2024/03/11 03:46:06;;;;;;;2.75;1.20;;;;;;;8.99;76.94;98593.16;10339275;28;20058;-84
2024/03/11 03:51:08;;;;;;;4.18;0.85;;;;;;;8.89;77.22;98615.81;10355819;28;20046;-84
2024/03/11 03:56:10;;;;;;;2.10;0.80;;;;;;;8.81;77.02;98621.41;10333482;28;20050;-84
2024/03/11 04:01:13;;;;;;;1.50;0.80;;;;;;;8.81;77.55;98625.94;10339136;28;20057;-84
2024/03/11 04:06:15;;;;;;;3.00;0.80;;;;;;;8.83;76.90;98630.06;10333185;28;20100;-84
2024/03/11 04:11:16;;;;;;;5.93;0.73;;;;;;;8.79;77.23;98636.88;10333863;28;20108;-84
2024/03/11 04:16:19;;;;;;;1.58;0.65;;;;;;;8.78;77.27;98632.53;10353445;28;20058;-84
2024/03/11 04:21:21;;;;;;;3.22;0.57;;;;;;;8.70;77.75;98640.78;10354761;28;20046;-84
2024/03/11 04:26:23;;;;;;;2.13;0.88;;;;;;;8.76;77.43;98647.16;10351911;28;20054;-84
2024/03/11 04:31:25;;;;;;;4.32;0.60;;;;;;;8.70;77.23;98654.16;10335629;28;20310;-83
2024/03/11 04:36:26;;;;;;;1.80;0.52;;;;;;;8.66;77.82;98659.09;10330736;28;20393;-83
2024/03/11 04:41:28;;;;;;;0.80;0.40;;;;;;;8.58;78.02;98661.97;10353460;28;20065;-83
2024/03/11 04:46:30;;;;;;;3.17;0.52;;;;;;;8.58;77.68;98672.69;10348290;28;20042;-88
2024/03/11 04:51:32;;;;;;;2.65;0.40;;;;;;;8.46;78.28;98666.31;10346504;28;20056;-88
2024/03/11 04:56:34;;;;;;;1.02;0.63;;;;;;;8.47;78.24;98673.28;10346724;28;20042;-89
2024/03/11 05:01:36;;;;;;;1.17;0.50;;;;;;;8.50;78.04;98671.03;10347982;28;20520;-89
2024/03/11 05:06:38;;;;;;;0.95;0.47;;;;;;;8.58;78.21;98675.38;10345862;28;20084;-88
2024/03/11 05:11:39;;;;;;;5.22;1.05;;;;;;;8.56;78.36;98673.94;10370032;28;20760;-88
2024/03/11 05:16:41;;;;;;;1.10;0.70;;;;;;;8.61;78.14;98687.53;10362934;28;20042;-82
2024/03/11 05:21:42;;;;;;;3.38;0.70;;;;;;;8.64;77.68;98687.94;10374419;28;20051;-81
2024/03/11 05:26:45;;;;;;;2.47;0.70;;;;;;;8.61;78.21;98690.19;10353404;28;20219;-80
2024/03/11 05:31:47;;;;;;;1.50;0.75;;;;;;;8.50;78.64;98688.97;10364481;28;20056;-82
2024/03/11 05:36:49;;;;;;;1.65;0.95;;;;;;;8.60;78.26;98694.75;10381885;28;20097;-82
2024/03/11 05:41:51;;;;;;;2.38;0.75;;;;;;;8.64;78.52;98693.31;10384607;28;20049;-82
2024/03/11 05:46:52;;;;;;;1.40;0.80;;;;;;;8.66;78.66;98703.81;10369787;28;20058;-85
2024/03/11 05:51:57;;;;;;;3.00;0.88;;;;;;;8.77;78.23;98705.06;10369492;28;20126;-83
2024/03/11 05:56:59;;;;;;;4.85;1.48;;;;;;;8.81;78.14;98704.47;10381330;28;20058;-83
2024/03/11 06:02:00;;;;;;;3.10;1.83;;;;;;;8.84;78.38;98701.34;10355909;28;20055;-83
2024/03/11 06:07:02;;;;;;;4.88;2.05;;;;;;;8.99;78.50;98708.38;10388666;28;20057;-84
2024/03/11 06:12:07;;;;;;;10.07;2.95;;;;;;;8.97;78.53;98721.16;10379182;28;20042;-87
2024/03/11 06:17:10;;;;;;;5.40;1.98;;;;;;;8.97;78.61;98715.81;10363576;28;20046;-87
2024/03/11 06:22:15;;;;;;;6.18;2.47;;;;;;;9.04;78.83;98724.66;10375409;28;20054;-85
2024/03/11 06:27:17;;;;;;;8.55;2.75;;;;;;;8.92;78.81;98737.84;10374749;28;20092;-87
2024/03/11 06:32:20;;;;;;;6.20;2.60;;;;;;;8.83;79.36;98750.63;10362379;23;20042;-61
2024/03/11 06:37:21;;;;;;;6.47;3.05;;;;;;;8.83;79.60;98761.34;10382359;28;20081;-63
2024/03/11 06:42:23;;;;;;;9.32;2.92;;;;;;;8.82;79.89;98756.19;10396786;28;20077;-64
2024/03/11 06:47:24;;;;;;;5.18;2.78;;;;;;;8.84;79.58;98770.19;10405386;28;20076;-65
2024/03/11 06:52:27;;;;;;;7.10;2.40;;;;;;;8.73;80.14;98777.00;10394498;28;20058;-64
2024/03/11 06:57:28;;;;;;;9.75;3.70;;;;;;;8.82;80.09;98778.44;10361494;28;20054;-65
2024/03/11 07:02:32;;;;;;;9.25;3.45;;;;;;;8.83;79.81;98784.63;10336939;28;20072;-64
2024/03/11 07:07:33;;;;;;;7.65;2.83;;;;;;;8.88;79.84;98782.16;10358278;28;20042;-64
2024/03/11 07:12:35;;;;;;;7.13;3.28;;;;;;;8.98;79.80;98793.28;10358075;28;20077;-61
2024/03/11 07:17:37;;;;;;;7.45;3.60;;;;;;;9.00;79.90;98799.28;10324176;28;20057;-60
2024/03/11 07:22:40;;;;;;;7.78;3.33;;;;;;;8.90;80.23;98804.22;10302187;28;20094;-60
2024/03/11 07:27:42;;;;;;;10.85;3.80;;;;;;;8.91;80.45;98828.13;10325642;28;20054;-61
2024/03/11 07:32:43;;;;;;;14.52;5.03;;;;;;;9.04;80.33;98832.69;10328015;28;20054;-62
2024/03/11 07:37:44;;;;;;;16.63;6.70;;;;;;;9.12;80.16;98837.88;10326420;28;20046;-60
2024/03/11 07:42:46;;;;;;;14.23;6.00;;;;;;;9.15;80.52;98844.66;10324768;28;20070;-60
2024/03/11 07:47:47;;;;;;;16.92;6.63;;;;;;;9.10;80.73;98860.53;10327189;28;20049;-60
2024/03/11 07:52:49;;;;;;;16.02;5.80;;;;;;;9.30;80.29;98865.91;10340947;28;20441;-61
2024/03/11 07:57:51;;;;;;;12.60;5.53;;;;;;;9.33;80.17;98870.88;10353388;28;20072;-63
2024/03/11 08:02:52;;;;;;;16.40;6.15;;;;;;;9.41;80.52;98885.97;10356617;28;20401;-63
2024/03/11 08:07:54;;;;;;;13.38;5.60;;;;;;;9.44;80.36;98881.00;10357418;28;20065;-61
2024/03/11 08:12:56;;;;;;;11.98;5.25;;;;;;;9.48;80.40;98889.47;10352610;28;20106;-61
2024/03/11 08:17:58;;;;;;;14.45;5.18;;;;;;;9.50;80.88;98904.34;10353537;28;20074;-61
2024/03/11 08:22:59;;;;;;;12.18;5.03;;;;;;;9.67;80.44;98910.09;10349730;28;20096;-64
2024/03/11 08:28:01;;;;;;;13.43;5.80;;;;;;;9.73;80.54;98921.88;10323854;28;20056;-64
2024/03/11 08:33:03;;;;;;;13.52;6.65;;;;;;;9.65;80.70;98925.59;10326065;28;20042;-64
2024/03/11 08:38:05;;;;;;;21.58;7.90;;;;;;;9.64;80.86;98923.13;10320496;28;20102;-64
2024/03/11 08:43:07;;;;;;;16.52;7.90;;;;;;;9.69;80.65;98928.69;10322058;28;20058;-65
2024/03/11 08:48:10;;;;;;;20.17;8.80;;;;;;;9.75;80.95;98925.19;10325595;28;20052;-65
2024/03/11 08:53:12;;;;;;;14.25;7.65;;;;;;;9.81;80.95;98942.31;10321618;28;20061;-65
2024/03/11 08:58:13;;;;;;;17.23;8.30;;;;;;;9.87;80.79;98954.91;10320525;28;20118;-65
2024/03/11 09:03:15;;;;;;;20.10;9.73;;;;;;;10.03;81.11;98965.25;10321004;28;20085;-65
2024/03/11 09:08:22;;;;;;;24.05;10.82;;;;;;;10.22;80.91;98970.81;10320577;28;20053;-64
2024/03/11 09:13:25;;;;;;;18.08;9.13;;;;;;;10.30;80.69;98976.00;10322176;28;20085;-65
2024/03/11 09:18:27;;;;;;;16.73;9.82;;;;;;;10.37;80.42;98990.25;10320516;28;20054;-65
2024/03/11 09:23:28;;;;;;;15.98;9.23;;;;;;;10.41;80.55;98993.34;10319973;28;20042;-66
2024/03/11 09:28:30;;;;;;;15.85;8.10;;;;;;;10.52;80.65;99001.63;10321172;28;20498;-65
2024/03/11 09:33:31;;;;;;;13.63;7.38;;;;;;;10.39;80.76;99017.72;10316198;28;20431;-65
2024/03/11 09:38:33;;;;;;;13.35;7.65;;;;;;;10.33;80.43;99021.25;10291374;28;20481;-66
2024/03/11 09:43:35;;;;;;;12.10;8.40;;;;;;;10.43;80.29;99026.22;10321453;28;20057;-67
2024/03/11 09:48:38;;;;;;;15.35;8.27;;;;;;;10.52;80.13;99030.31;10320440;28;20374;-65
2024/03/11 09:53:40;;;;;;;13.70;7.80;;;;;;;10.59;80.22;99036.53;10313916;28;20050;-65
2024/03/11 09:58:47;;;;;;;14.77;7.63;;;;;;;10.78;80.45;99039.38;10317140;28;20050;-66
2024/03/11 10:03:48;;;;;;;12.45;7.63;;;;;;;10.98;80.30;99042.88;10316682;28;20050;-65
2024/03/11 10:08:50;;;;;;;12.35;7.13;;;;;;;11.21;79.92;99036.16;10317214;28;20055;-65
2024/03/11 10:13:53;;;;;;;10.20;5.53;;;;;;;11.47;79.58;99043.28;10319143;28;20541;-64
2024/03/11 10:19:02;;;;;;;10.77;6.68;;;;;;;11.85;78.88;99037.91;10317985;28;20149;-64
2024/03/11 10:24:05;;;;;;;14.10;6.07;;;;;;;11.97;78.93;99042.66;10299422;28;20089;-64
2024/03/11 10:29:08;;;;;;;11.77;6.65;;;;;;;12.42;78.70;99048.72;10320548;28;20046;-63
2024/03/11 10:34:20;;;;;;;12.40;7.35;;;;;;;13.09;76.97;99045.38;10316724;28;20053;-63
2024/03/11 10:44:23;;;;;;;8.18;5.65;;;;;;;15.11;71.19;99059.25;10319892;28;20148;-61
2024/03/11 10:49:27;;;;;;;12.32;6.65;;;;;;;14.61;72.93;99063.28;10317672;28;20353;-61
2024/03/11 10:54:29;;;;;;;10.60;6.28;;;;;;;14.66;73.08;99070.66;10316589;28;20497;-61
2024/03/11 10:59:34;;;;;;;12.43;6.68;;;;;;;14.63;72.87;99066.56;10316282;28;21025;-61
2024/03/11 11:04:36;;;;;;;8.63;6.15;;;;;;;14.38;73.31;99076.72;10317049;28;20058;-61
2024/03/11 11:09:38;;;;;;;7.57;5.18;;;;;;;14.38;72.73;99076.72;10315425;28;20061;-61
2024/03/11 11:14:40;;;;;;;7.63;4.40;;;;;;;14.60;71.60;99071.59;10316174;28;20768;-61
2024/03/11 11:19:41;;;;;;;6.38;4.10;;;;;;;15.15;69.74;99068.53;10315653;28;20054;-61
2024/03/11 11:24:43;;;;;;;6.50;4.53;;;;;;;15.76;68.23;99069.00;10315011;28;20051;-61
2024/03/11 11:29:46;;;;;;;6.80;4.15;;;;;;;16.38;65.62;99070.91;10318052;28;20146;-61
2024/03/11 11:34:50;;;;;;;6.95;4.72;;;;;;;19.19;57.92;99069.75;10314087;28;20082;-61
2024/03/11 11:39:52;;;;;;;5.22;3.95;;;;;;;17.44;61.63;99089.06;10290376;28;20045;-62
2024/03/11 11:44:55;;;;;;;7.18;3.35;;;;;;;16.00;62.61;99098.72;10314672;28;20039;-62
2024/03/11 11:49:57;;;;;;;4.30;2.78;;;;;;;15.80;61.21;99110.81;10313656;28;20054;-62
2024/03/11 11:55:06;;;;;;;3.97;2.88;;;;;;;15.16;61.97;99118.06;10313618;28;20390;-61
2024/03/11 12:00:13;;;;;;;4.45;3.00;;;;;;;15.27;61.51;99117.25;10312806;28;20146;-62
2024/03/11 12:05:19;;;;;;;5.43;2.50;;;;;;;15.25;61.08;99122.06;10312982;28;20086;-64
2024/03/11 12:10:21;;;;;;;3.90;2.80;;;;;;;17.81;55.11;99104.75;10313407;28;20050;-63
2024/03/11 12:15:25;;;;;;;2.40;1.80;;;;;;;19.06;53.57;99099.38;10313714;28;20061;-62
2024/03/11 12:25:34;;;;;;;4.90;2.63;;;;;;;19.04;52.27;99105.09;10313122;28;20145;-63
2024/03/11 12:30:37;;;;;;;5.65;2.40;;;;;;;22.43;44.68;99094.94;10313822;28;20054;-63
2024/03/11 12:35:43;;;;;;;3.90;2.08;;;;;;;20.70;46.60;99113.59;10313854;28;20054;-63
2024/03/11 12:40:46;;;;;;;5.20;2.85;;;;;;;20.29;46.89;99103.41;10311836;28;20054;-64
2024/03/11 12:45:52;;;;;;;3.15;2.25;;;;;;;20.79;45.28;99101.84;10314191;28;20569;-64
2024/03/11 12:51:02;;;;;;;6.97;2.67;;;;;;;20.56;44.40;99105.09;10315104;28;20053;-63
2024/03/11 12:56:05;;;;;;;2.70;2.03;;;;;;;22.02;41.94;99094.34;10313127;28;20129;-63
2024/03/11 13:01:16;;;;;;;2.72;2.13;;;;;;;24.80;37.49;99101.19;10308356;28;20520;-64
2024/03/11 13:06:19;;;;;;;2.45;1.40;;;;;;;24.88;36.87;99111.50;10313068;28;20043;-64
2024/03/11 13:11:23;;;;;;;2.58;1.42;;;;;;;23.85;37.74;99129.47;10319610;28;20148;-63
2024/03/11 13:16:24;;;;;;;3.97;1.30;;;;;;;23.53;37.41;99130.13;10320724;28;20065;-63
2024/03/11 13:21:26;;;;;;;1.50;0.98;;;;;;;21.99;38.73;99139.53;10319798;28;20676;-61
2024/03/11 13:26:31;;;;;;;2.50;1.27;;;;;;;24.53;35.68;99132.97;10318074;28;20054;-62
2024/03/11 13:31:32;;;;;;;2.97;1.35;;;;;;;26.33;32.51;99130.41;10315000;28;20505;-63
2024/03/11 13:36:34;;;;;;;1.65;0.82;;;;;;;26.62;31.79;99137.44;10317898;28;20120;-64
2024/03/11 13:41:35;;;;;;;1.85;0.82;;;;;;;26.24;30.52;99135.00;10319215;28;20058;-63
2024/03/11 13:46:38;;;;;;;1.05;0.90;;;;;;;27.62;28.42;99144.53;10321018;28;20070;-63
2024/03/11 13:51:40;;;;;;;0.82;0.60;;;;;;;28.26;27.34;99157.91;10317259;28;20081;-63
2024/03/11 13:56:42;;;;;;;1.67;0.77;;;;;;;27.08;28.65;99167.47;10321269;28;20058;-65
2024/03/11 14:01:50;;;;;;;3.78;0.80;;;;;;;26.45;29.04;99168.44;10320052;28;20402;-63
2024/03/11 14:06:51;;;;;;;2.63;1.20;;;;;;;24.52;30.58;99178.84;10316425;28;20104;-64
2024/03/11 14:11:53;;;;;;;1.00;0.90;;;;;;;24.38;29.94;99174.38;10318496;28;20073;-62
2024/03/11 14:16:55;;;;;;;1.48;0.80;;;;;;;24.83;29.44;99194.06;10318370;28;20054;-65
2024/03/11 14:21:56;;;;;;;2.67;1.00;;;;;;;23.22;31.25;99193.50;10328508;28;20050;-62
2024/03/11 14:26:58;;;;;;;2.00;1.08;;;;;;;23.65;30.98;99195.56;10330014;28;20054;-63
2024/03/11 14:31:59;;;;;;;1.77;0.85;;;;;;;21.39;33.77;99205.06;10322687;28;20042;-63
2024/03/11 14:37:01;;;;;;;2.35;1.10;;;;;;;21.86;33.41;99211.25;10324960;28;20077;-63
2024/03/11 14:42:03;;;;;;;2.20;0.90;;;;;;;21.63;33.34;99216.25;10321778;28;20089;-63
2024/03/11 14:47:06;;;;;;;3.13;1.13;;;;;;;20.41;35.21;99229.53;10320704;28;20042;-64
2024/03/11 14:52:07;;;;;;;2.88;0.90;;;;;;;20.41;35.11;99234.19;10324601;28;20126;-63
2024/03/11 14:57:09;;;;;;;1.88;1.20;;;;;;;21.17;34.13;99238.16;10309038;28;20588;-63
2024/03/11 15:02:11;;;;;;;4.20;1.40;;;;;;;21.23;34.59;99233.50;10322837;28;20049;-64
2024/03/11 15:07:13;;;;;;;1.50;0.80;;;;;;;20.52;35.47;99252.25;10321206;28;20073;-64
2024/03/11 15:12:15;;;;;;;2.45;0.80;;;;;;;20.20;36.25;99249.66;10320524;28;20115;-63
2024/03/11 15:17:18;;;;;;;1.75;1.05;;;;;;;20.23;36.02;99254.59;10319200;28;20047;-63
2024/03/11 15:22:19;;;;;;;2.22;1.08;;;;;;;19.74;36.87;99255.69;10321233;28;20127;-64
2024/03/11 15:27:23;;;;;;;4.35;0.93;;;;;;;19.15;37.86;99264.78;10316097;28;20085;-61
2024/03/11 15:32:25;;;;;;;1.90;1.10;;;;;;;18.63;38.41;99285.22;10317721;28;20058;-59
2024/03/11 15:37:26;;;;;;;1.33;0.77;;;;;;;18.21;38.93;99291.25;10316268;28;20144;-61
2024/03/11 15:42:29;;;;;;;2.28;1.00;;;;;;;17.75;39.51;99295.19;10318201;28;20048;-64
2024/03/11 15:47:35;;;;;;;1.75;0.90;;;;;;;17.49;39.93;99300.22;10316587;28;20068;-60
2024/03/11 15:52:37;;;;;;;1.30;0.70;;;;;;;17.17;40.60;99306.22;10312420;28;20134;-59
2024/03/11 15:57:39;;;;;;;2.17;0.85;;;;;;;17.47;40.55;99305.09;10315189;28;20050;-62
2024/03/11 16:02:41;;;;;;;1.52;0.88;;;;;;;17.48;40.39;99301.31;10320663;28;20054;-59
2024/03/11 16:07:46;;;;;;;1.95;0.75;;;;;;;17.24;40.66;99306.91;10338163;28;20046;-58
2024/03/11 16:12:50;;;;;;;2.80;1.40;;;;;;;16.93;41.37;99312.88;10325074;28;20068;-67
2024/03/11 16:17:54;;;;;;;1.30;0.65;;;;;;;17.07;40.88;99316.09;10355241;28;20047;-63
2024/03/11 16:22:59;;;;;;;1.95;0.90;;;;;;;16.60;41.76;99327.94;10358823;28;20078;-65
2024/03/11 16:28:05;;;;;;;1.45;0.70;;;;;;;16.59;41.98;99326.31;10422605;23;20042;-66
2024/03/11 16:33:09;;;;;;;3.25;0.77;;;;;;;16.60;41.72;99336.06;10385427;28;20065;-57
2024/03/11 16:38:10;;;;;;;1.20;0.60;;;;;;;16.45;42.25;99336.59;10357036;28;20050;-66
2024/03/11 16:43:15;;;;;;;1.58;0.80;;;;;;;16.13;42.69;99347.00;10346022;28;20057;-65
2024/03/11 16:48:17;;;;;;;0.80;0.70;;;;;;;15.81;42.99;99361.75;10356799;28;20061;-65
2024/03/11 16:53:22;;;;;;;1.70;0.45;;;;;;;15.43;42.87;99362.97;10361219;28;20047;-66
2024/03/11 16:58:23;;;;;;;0.95;0.50;;;;;;;15.20;43.12;99377.25;10351116;28;20061;-65
2024/03/11 17:03:28;;;;;;;0.63;0.40;;;;;;;14.99;43.42;99375.06;10356666;28;20096;-66
2024/03/11 17:08:29;;;;;;;0.70;0.40;;;;;;;14.71;43.53;99381.03;10356028;28;20058;-66
2024/03/11 17:13:31;;;;;;;1.88;0.60;;;;;;;14.50;43.51;99388.53;10356925;28;20050;-66
2024/03/11 17:18:32;;;;;;;1.80;0.43;;;;;;;14.33;43.86;99387.47;10354444;28;20085;-65
2024/03/11 17:23:35;;;;;;;4.70;0.90;;;;;;;14.20;43.82;99389.28;10357369;28;20453;-65
2024/03/11 17:28:37;;;;;;;2.25;0.70;;;;;;;14.08;44.22;99391.88;10379981;28;20117;-60
2024/03/11 17:33:39;;;;;;;2.40;0.95;;;;;;;13.90;44.81;99399.94;10413979;28;20118;-59
2024/03/11 17:38:43;;;;;;;0.70;0.60;;;;;;;13.65;45.16;99406.16;10424857;28;20123;-59
2024/03/11 17:43:44;;;;;;;1.83;0.95;;;;;;;13.40;45.74;99418.81;10425847;28;20050;-58
2024/03/11 17:48:46;;;;;;;1.98;0.70;;;;;;;13.22;46.37;99427.59;10369835;28;20068;-59
2024/03/11 17:53:48;;;;;;;5.63;1.17;;;;;;;12.99;46.87;99434.34;10392988;28;20440;-59
2024/03/11 17:58:50;;;;;;;1.90;0.80;;;;;;;12.78;47.51;99432.78;10396319;28;20104;-59
2024/03/11 18:03:51;;;;;;;3.40;1.05;;;;;;;12.54;47.69;99436.16;10393153;28;20050;-59
2024/03/11 18:08:53;;;;;;;2.05;0.73;;;;;;;12.29;48.53;99445.75;10397531;28;20073;-59
2024/03/11 18:13:55;;;;;;;2.03;1.13;;;;;;;12.14;48.81;99442.44;10395382;28;20049;-59
2024/03/11 18:18:57;;;;;;;11.25;2.55;;;;;;;11.98;49.30;99446.41;10398012;28;20068;-58
2024/03/11 18:23:58;;;;;;;6.57;1.30;;;;;;;11.76;50.16;99456.50;10393464;28;20049;-57
2024/03/11 18:29:00;;;;;;;7.50;2.88;;;;;;;11.55;50.92;99460.22;10365778;28;20053;-58
2024/03/11 18:34:03;;;;;;;15.20;10.63;;;;;;;11.30;51.99;99476.09;10358501;28;20042;-59
2024/03/11 18:39:05;;;;;;;7.32;4.35;;;;;;;11.20;51.78;99479.19;10353766;28;20104;-59
2024/03/11 18:44:06;;;;;;;7.30;2.90;;;;;;;11.09;52.36;99495.88;10349557;28;20145;-58
2024/03/11 18:49:08;;;;;;;4.82;2.53;;;;;;;10.91;52.84;99508.00;10353640;28;20054;-60
2024/03/11 18:54:09;;;;;;;3.88;2.47;;;;;;;10.77;53.28;99508.97;10355629;28;21053;-60
2024/03/11 18:59:11;;;;;;;6.18;2.20;;;;;;;10.60;53.76;99513.00;10385000;28;20046;-60
2024/03/11 19:04:14;;;;;;;6.00;2.70;;;;;;;10.52;54.15;99520.19;10377022;28;20718;-60
2024/03/11 19:09:17;;;;;;;7.13;3.20;;;;;;;10.42;54.30;99524.25;10373305;28;20745;-60
2024/03/11 19:14:19;;;;;;;6.38;3.20;;;;;;;10.29;55.14;99533.84;10372834;28;20551;-59
2024/03/11 19:19:22;;;;;;;9.75;3.47;;;;;;;10.15;55.03;99540.13;10380751;28;20050;-60
2024/03/11 19:24:24;;;;;;;5.65;2.20;;;;;;;10.00;55.54;99550.09;10385751;28;20069;-60
2024/03/11 19:29:26;;;;;;;4.03;1.90;;;;;;;9.88;56.10;99560.50;10384046;28;20053;-59
2024/03/11 19:34:27;;;;;;;6.25;3.15;;;;;;;9.74;56.46;99556.88;10391502;28;20053;-59
2024/03/11 19:39:43;;;;;;;7.43;3.80;;;;;;;9.62;56.84;99566.44;10373166;28;20046;-59
2024/03/11 19:45:14;;;;;;;5.50;2.30;;;;;;;9.46;57.31;99581.72;10372692;28;20505;-60
2024/03/11 19:50:38;;;;;;;12.70;2.38;;;;;;;9.33;57.62;99582.38;10384114;28;20084;-59
2024/03/11 19:56:07;;;;;;;3.97;1.58;;;;;;;9.21;58.03;99583.06;10392541;28;20057;-60
2024/03/11 20:01:51;;;;;;;5.55;2.30;;;;;;;9.05;58.40;99584.91;10392709;28;20064;-59
2024/03/11 20:07:11;;;;;;;8.63;1.95;;;;;;;8.93;58.52;99589.91;10368049;28;20050;-60
2024/03/11 20:12:44;;;;;;;10.35;3.50;;;;;;;8.78;58.65;99594.41;10345926;28;20050;-60
2024/03/11 20:18:21;;;;;;;5.20;2.22;;;;;;;8.63;59.48;99605.13;10341988;28;20057;-60
2024/03/11 20:24:00;;;;;;;6.45;3.00;;;;;;;8.53;59.66;99618.75;10350936;28;20131;-60
2024/03/11 20:29:27;;;;;;;7.65;4.60;;;;;;;8.46;59.95;99623.16;10352242;28;20061;-60
2024/03/11 20:34:28;;;;;;;9.77;3.40;;;;;;;8.34;59.81;99624.56;10343508;28;20046;-60
2024/03/11 20:39:33;;;;;;;11.32;5.72;;;;;;;8.28;60.68;99641.34;10347819;28;20670;-60
2024/03/11 20:44:35;;;;;;;10.35;5.03;;;;;;;8.08;61.02;99638.31;10344298;28;20042;-60
2024/03/11 20:49:36;;;;;;;7.10;3.45;;;;;;;8.08;60.66;99651.72;10347798;28;20045;-60
2024/03/11 20:54:39;;;;;;;7.93;3.15;;;;;;;8.05;60.89;99657.41;10347537;28;20053;-60
2024/03/11 20:59:40;;;;;;;7.03;2.83;;;;;;;7.99;61.04;99656.25;10354634;28;20061;-60
2024/03/11 21:04:42;;;;;;;6.50;3.05;;;;;;;7.91;61.78;99667.84;10330218;28;20050;-61
2024/03/11 21:09:43;;;;;;;5.45;2.90;;;;;;;7.83;61.27;99680.44;10316368;28;20069;-61
2024/03/11 21:14:45;;;;;;;8.38;3.08;;;;;;;7.74;62.27;99684.97;10350005;28;20148;-60
2024/03/11 21:19:52;;;;;;;6.72;2.90;;;;;;;7.56;62.39;99687.91;10351494;28;20053;-61
2024/03/11 21:24:54;;;;;;;9.40;3.65;;;;;;;7.55;62.63;99699.63;10350718;28;20056;-60
2024/03/11 21:29:56;;;;;;;10.70;4.40;;;;;;;7.54;62.93;99711.31;10355013;28;20076;-60
2024/03/11 21:34:58;;;;;;;8.48;4.68;;;;;;;7.48;62.92;99717.34;10355441;28;20410;-61
2024/03/11 21:39:59;;;;;;;8.38;4.85;;;;;;;7.45;62.71;99721.22;10348102;28;20592;-60
2024/03/11 21:45:01;;;;;;;9.55;6.07;;;;;;;7.41;62.72;99717.22;10356405;28;20133;-60
2024/03/11 21:50:08;;;;;;;30.45;11.82;;;;;;;7.29;63.02;99726.59;10353123;28;20038;-60
2024/03/11 21:55:11;;;;;;;10.50;4.87;;;;;;;7.25;63.55;99727.94;10356022;28;20046;-60
2024/03/11 22:00:17;;;;;;;9.52;3.97;;;;;;;7.21;63.75;99731.94;10355136;28;20752;-60
2024/03/11 22:05:19;;;;;;;8.63;4.22;;;;;;;7.16;63.53;99745.81;10356602;28;20053;-60
2024/03/11 22:10:20;;;;;;;11.27;4.65;;;;;;;7.13;63.07;99747.00;10358422;28;20057;-60
2024/03/11 22:15:22;;;;;;;10.13;5.63;;;;;;;7.08;63.42;99748.50;10355521;28;20065;-60
2024/03/11 22:20:23;;;;;;;4.65;2.97;;;;;;;7.01;63.82;99763.53;10357768;28;20109;-60
2024/03/11 22:25:26;;;;;;;4.00;2.65;;;;;;;6.94;63.70;99760.69;10356126;28;20046;-59
2024/03/11 22:30:28;;;;;;;8.15;3.40;;;;;;;6.90;63.50;99768.22;10352946;28;20052;-58
2024/03/11 22:35:29;;;;;;;4.28;2.83;;;;;;;6.83;64.68;99758.34;10358349;28;20050;-60
2024/03/11 22:40:32;;;;;;;4.82;2.17;;;;;;;6.78;64.41;99763.38;10352708;28;20073;-58
2024/03/11 22:45:33;;;;;;;5.90;2.72;;;;;;;6.72;64.49;99778.22;10357227;28;20052;-58
2024/03/11 22:50:35;;;;;;;6.93;2.63;;;;;;;6.69;63.92;99781.22;10357210;28;20081;-59
2024/03/11 22:55:36;;;;;;;4.45;2.40;;;;;;;6.60;64.63;99776.88;10355766;28;20053;-58
2024/03/11 23:00:50;;;;;;;12.38;3.33;;;;;;;6.54;64.60;99778.38;10356088;28;20049;-59
2024/03/11 23:05:52;;;;;;;6.97;2.78;;;;;;;6.50;64.57;99782.38;10347232;28;20062;-59
2024/03/11 23:10:55;;;;;;;8.25;3.53;;;;;;;6.43;64.73;99787.50;10352637;28;20393;-59
2024/03/11 23:15:58;;;;;;;4.82;2.67;;;;;;;6.39;64.48;99791.50;10358636;28;20515;-58
2024/03/11 23:20:59;;;;;;;8.88;3.03;;;;;;;6.35;65.35;99799.00;10354568;28;20050;-59
2024/03/11 23:26:01;;;;;;;4.43;2.50;;;;;;;6.34;64.92;99786.66;10352653;28;20085;-58
2024/03/11 23:31:05;;;;;;;6.07;3.00;;;;;;;6.31;65.00;99781.63;10353817;28;20095;-58
2024/03/11 23:36:09;;;;;;;5.60;2.58;;;;;;;6.28;64.58;99781.13;10353909;28;20056;-59
2024/03/11 23:41:13;;;;;;;4.85;2.67;;;;;;;6.24;65.24;99788.63;10352569;28;20061;-59
2024/03/11 23:46:15;;;;;;;5.03;2.63;;;;;;;6.23;64.83;99781.59;10352682;28;20405;-58